createdAt,value
2018-02-22T00:01:18.589Z,62.62
2018-02-22T00:03:46.141Z,66.75
2018-02-22T00:06:13.681Z,63.78
2018-02-22T00:08:41.362Z,74.70
2018-02-22T00:11:09.120Z,64.10
2018-02-22T00:13:36.630Z,65.35
2018-02-22T00:16:04.162Z,63.58
2018-02-22T00:18:31.710Z,74.22
2018-02-22T00:20:59.257Z,63.80
2018-02-22T00:23:26.766Z,70.65
2018-02-22T00:25:54.300Z,75.82
2018-02-22T00:28:21.845Z,63.13
2018-02-22T00:30:49.367Z,76.20
2018-02-22T00:33:16.935Z,71.25
2018-02-22T00:35:44.453Z,77.40
2018-02-22T00:38:11.973Z,64.45
2018-02-22T00:40:39.534Z,58.22
2018-02-22T00:43:07.061Z,55.83
2018-02-22T00:45:34.978Z,71.72
2018-02-22T00:48:02.502Z,54.75
2018-02-22T00:50:30.058Z,56.60
2018-02-22T00:52:57.617Z,58.47
2018-02-22T00:55:25.142Z,66.40
2018-02-22T00:57:52.965Z,74.62
2018-02-22T01:00:20.489Z,70.55
2018-02-22T01:02:48.026Z,58.72
2018-02-22T01:05:15.589Z,88.18
2018-02-22T01:07:43.114Z,65.40
2018-02-22T01:10:10.666Z,76.25
2018-02-22T01:12:38.185Z,66.60
2018-02-22T01:15:05.911Z,82.45
2018-02-22T01:17:33.483Z,60.80
2018-02-22T01:20:01.020Z,68.45
2018-02-22T01:22:28.757Z,59.22
2018-02-22T01:24:56.269Z,74.37
2018-02-22T01:27:23.794Z,58.80
2018-02-22T01:29:51.361Z,55.30
2018-02-22T01:32:18.885Z,57.85
2018-02-22T01:34:46.560Z,52.97
2018-02-22T01:37:14.106Z,52.80
2018-02-22T01:39:41.648Z,58.85
2018-02-22T01:42:09.197Z,59.10
2018-02-22T01:44:36.729Z,60.15
2018-02-22T01:47:04.281Z,57.40
2018-02-22T01:49:31.806Z,54.15
2018-02-22T01:51:59.337Z,51.05
2018-02-22T01:54:26.893Z,74.10
2018-02-22T01:56:54.420Z,54.95
2018-02-22T01:59:21.979Z,59.30
2018-02-22T02:01:49.514Z,51.72
2018-02-22T02:04:17.042Z,68.10
2018-02-22T02:06:44.597Z,61.78
2018-02-22T02:09:12.118Z,59.65
2018-02-22T02:11:39.691Z,66.20
2018-02-22T02:14:07.214Z,69.18
2018-02-22T02:16:34.740Z,51.13
2018-02-22T02:19:02.313Z,58.67
2018-02-22T02:21:29.841Z,61.55
2018-02-22T02:23:57.642Z,57.55
2018-02-22T02:26:25.157Z,59.80
2018-02-22T02:28:52.673Z,69.80
2018-02-22T02:31:20.225Z,66.22
2018-02-22T02:33:47.754Z,62.22
2018-02-22T02:36:15.990Z,61.37
2018-02-22T02:38:43.522Z,61.05
2018-02-22T02:41:11.046Z,66.37
2018-02-22T02:43:38.603Z,62.88
2018-02-22T02:46:06.136Z,62.50
2018-02-22T02:48:33.711Z,56.80
2018-02-22T02:51:01.262Z,62.97
2018-02-22T02:53:29.701Z,62.45
2018-02-22T02:55:57.255Z,62.90
2018-02-22T02:58:24.790Z,58.55
2018-02-22T03:00:52.663Z,64.57
2018-02-22T03:03:20.187Z,51.97
2018-02-22T03:05:47.743Z,60.38
2018-02-22T03:08:15.302Z,90.50
2018-02-22T03:10:42.818Z,48.58
2018-02-22T03:13:10.398Z,57.05
2018-02-22T03:15:37.913Z,57.60
2018-02-22T03:18:05.426Z,57.40
2018-02-22T03:20:32.982Z,54.70
2018-02-22T03:23:00.502Z,65.00
2018-02-22T03:25:28.257Z,65.18
2018-02-22T03:27:55.773Z,50.90
2018-02-22T03:30:23.311Z,61.03
2018-02-22T03:32:50.862Z,73.43
2018-02-22T03:35:18.415Z,66.53
2018-02-22T03:37:46.258Z,56.25
2018-02-22T03:40:14.249Z,55.95
2018-02-22T03:42:41.763Z,58.38
2018-02-22T03:45:09.319Z,49.40
2018-02-22T03:47:36.853Z,49.95
2018-02-22T03:50:04.420Z,52.75
2018-02-22T03:52:31.946Z,49.05
2018-02-22T03:54:59.483Z,47.22
2018-02-22T03:57:27.043Z,53.65
2018-02-22T03:59:54.566Z,47.38
2018-02-22T04:02:22.117Z,50.40
2018-02-22T04:04:49.633Z,52.85
2018-02-22T04:07:17.154Z,55.72
2018-02-22T04:09:44.697Z,52.13
2018-02-22T04:12:12.214Z,51.95
2018-02-22T04:14:39.873Z,53.67
2018-02-22T04:17:07.409Z,46.63
2018-02-22T04:19:34.934Z,62.20
2018-02-22T04:22:02.483Z,42.95
2018-02-22T04:24:30.332Z,42.60
2018-02-22T04:26:57.897Z,43.92
2018-02-22T04:29:25.441Z,43.55
2018-02-22T04:31:52.963Z,43.85
2018-02-22T04:34:20.510Z,47.53
2018-02-22T04:36:48.033Z,51.80
2018-02-22T04:39:15.592Z,45.15
2018-02-22T04:41:43.113Z,55.38
2018-02-22T04:44:10.635Z,45.03
2018-02-22T04:46:38.188Z,49.42
2018-02-22T04:49:05.714Z,32.00
2018-02-22T04:51:33.266Z,29.48
2018-02-22T04:54:00.797Z,44.85
2018-02-22T04:56:28.322Z,41.83
2018-02-22T04:58:56.766Z,38.25
2018-02-22T05:01:24.293Z,49.95
2018-02-22T05:03:52.391Z,29.10
2018-02-22T05:06:19.908Z,34.40
2018-02-22T05:08:47.469Z,53.38
2018-02-22T05:11:15.256Z,44.58
2018-02-22T05:13:42.778Z,43.67
2018-02-22T05:16:10.473Z,56.45
2018-02-22T05:18:38.000Z,49.92
2018-02-22T05:21:05.523Z,41.92
2018-02-22T05:23:33.082Z,38.92
2018-02-22T05:26:01.012Z,42.80
2018-02-22T05:28:29.623Z,38.72
2018-02-22T05:30:57.161Z,51.22
2018-02-22T05:33:24.686Z,42.92
2018-02-22T05:35:52.235Z,46.72
2018-02-22T05:38:19.749Z,45.05
2018-02-22T05:40:47.500Z,42.45
2018-02-22T05:43:15.041Z,32.97
2018-02-22T05:45:42.744Z,48.63
2018-02-22T05:48:10.296Z,38.72
2018-02-22T05:50:37.818Z,42.28
2018-02-22T05:53:05.601Z,39.97
2018-02-22T05:55:33.118Z,41.90
2018-02-22T05:58:00.641Z,26.67
2018-02-22T06:00:28.205Z,31.45
2018-02-22T06:02:55.745Z,47.80
2018-02-22T06:05:23.406Z,44.65
2018-02-22T06:07:50.932Z,39.50
2018-02-22T06:10:18.455Z,50.03
2018-02-22T06:12:46.010Z,45.75
2018-02-22T06:15:13.600Z,45.78
2018-02-22T06:17:41.213Z,58.75
2018-02-22T06:20:08.738Z,36.30
2018-02-22T06:22:36.259Z,46.22
2018-02-22T06:25:03.814Z,35.95
2018-02-22T06:27:31.348Z,43.05
2018-02-22T06:29:59.202Z,42.13
2018-02-22T06:32:26.718Z,39.67
2018-02-22T06:34:54.253Z,44.55
2018-02-22T06:37:21.838Z,35.65
2018-02-22T06:39:49.350Z,55.20
2018-02-22T06:42:17.200Z,52.40
2018-02-22T06:44:44.728Z,47.13
2018-02-22T06:47:12.252Z,39.78
2018-02-22T06:49:39.802Z,42.60
2018-02-22T06:52:07.322Z,49.38
2018-02-22T06:54:35.203Z,49.65
2018-02-22T06:57:02.727Z,50.15
2018-02-22T06:59:30.248Z,51.13
2018-02-22T07:01:57.814Z,52.55
2018-02-22T07:04:25.333Z,30.27
2018-02-22T07:06:53.029Z,50.08
2018-02-22T07:09:20.554Z,40.88
2018-02-22T07:11:48.078Z,52.67
2018-02-22T07:14:15.643Z,38.78
2018-02-22T07:16:43.167Z,51.55
2018-02-22T07:19:10.818Z,55.12
2018-02-22T07:21:38.382Z,46.00
2018-02-22T07:24:05.901Z,33.78
2018-02-22T07:26:33.450Z,61.55
2018-02-22T07:29:00.971Z,39.35
2018-02-22T07:31:28.519Z,40.80
2018-02-22T07:33:56.041Z,58.58
2018-02-22T07:36:23.567Z,54.55
2018-02-22T07:38:51.120Z,35.08
2018-02-22T07:41:18.639Z,50.53
2018-02-22T07:43:46.386Z,55.28
2018-02-22T07:46:13.906Z,53.53
2018-02-22T07:48:41.434Z,51.72
2018-02-22T07:51:09.870Z,64.37
2018-02-22T07:53:37.426Z,50.95
2018-02-22T07:56:05.194Z,56.63
2018-02-22T07:58:32.732Z,65.90
2018-02-22T08:01:00.255Z,55.88
2018-02-22T08:03:27.818Z,55.65
2018-02-22T08:05:55.343Z,63.83
2018-02-22T08:08:23.004Z,48.92
2018-02-22T08:10:50.528Z,55.40
2018-02-22T08:13:18.041Z,57.22
2018-02-22T08:15:45.607Z,51.10
2018-02-22T08:18:13.126Z,57.88
2018-02-22T08:20:40.682Z,57.50
2018-02-22T08:23:08.253Z,52.85
2018-02-22T08:25:35.749Z,47.53
2018-02-22T08:28:03.299Z,50.35
2018-02-22T08:30:30.826Z,53.42
2018-02-22T08:32:58.494Z,54.55
2018-02-22T08:35:26.014Z,50.72
2018-02-22T08:37:57.301Z,61.15
2018-02-22T08:40:24.846Z,56.85
2018-02-22T08:42:52.378Z,51.50
2018-02-22T08:45:20.187Z,59.25
2018-02-22T08:47:47.707Z,51.60
2018-02-22T08:50:15.230Z,56.60
2018-02-22T08:52:42.778Z,54.53
2018-02-22T08:55:10.300Z,53.20
2018-02-22T08:57:37.867Z,53.47
2018-02-22T09:00:05.390Z,61.25
2018-02-22T09:02:32.911Z,50.30
2018-02-22T09:05:00.486Z,42.92
2018-02-22T09:07:28.023Z,55.25
2018-02-22T09:09:55.579Z,47.72
2018-02-22T09:12:23.115Z,44.90
2018-02-22T09:14:50.638Z,54.70
2018-02-22T09:17:18.184Z,51.65
2018-02-22T09:19:45.719Z,51.50
2018-02-22T09:22:13.271Z,36.72
2018-02-22T09:24:40.794Z,46.63
2018-02-22T09:27:08.319Z,44.00
2018-02-22T09:29:35.865Z,50.97
2018-02-22T09:32:03.386Z,60.53
2018-02-22T09:34:31.262Z,57.40
2018-02-22T09:36:58.781Z,44.83
2018-02-22T09:39:26.305Z,50.58
2018-02-22T09:41:53.850Z,54.83
2018-02-22T09:44:21.370Z,38.58
2018-02-22T09:46:48.936Z,50.75
2018-02-22T09:49:16.463Z,39.92
2018-02-22T09:51:43.981Z,45.63
2018-02-22T09:54:11.518Z,40.63
2018-02-22T09:56:39.043Z,47.05
2018-02-22T09:59:06.826Z,47.33
2018-02-22T10:01:34.435Z,48.47
2018-02-22T10:04:01.955Z,47.75
2018-02-22T10:06:29.536Z,59.80
2018-02-22T10:08:57.049Z,35.60
2018-02-22T10:11:24.756Z,40.72
2018-02-22T10:13:52.297Z,49.15
2018-02-22T10:16:20.102Z,33.40
2018-02-22T10:18:47.692Z,31.23
2018-02-22T10:21:15.202Z,44.30
2018-02-22T10:23:42.866Z,50.92
2018-02-22T10:26:10.393Z,39.30
2018-02-22T10:28:37.953Z,35.17
2018-02-22T10:31:05.542Z,39.00
2018-02-22T10:33:33.062Z,30.77
2018-02-22T10:36:00.630Z,39.75
2018-02-22T10:38:28.151Z,44.97
2018-02-22T10:40:55.673Z,39.13
2018-02-22T10:43:23.217Z,46.10
2018-02-22T10:45:51.014Z,42.45
2018-02-22T10:48:18.982Z,43.03
2018-02-22T10:50:46.587Z,42.40
2018-02-22T10:53:14.309Z,43.78
2018-02-22T10:55:41.871Z,34.25
2018-02-22T10:58:09.387Z,35.78
2018-02-22T11:00:42.505Z,44.85
2018-02-22T11:03:10.049Z,33.40
2018-02-22T11:05:37.598Z,33.05
2018-02-22T11:08:05.612Z,43.80
2018-02-22T11:10:33.369Z,46.95
2018-02-22T11:13:00.918Z,38.47
2018-02-22T11:15:28.459Z,45.42
2018-02-22T11:17:55.982Z,42.53
2018-02-22T11:20:23.534Z,36.75
2018-02-22T11:22:51.054Z,45.63
2018-02-22T11:25:18.821Z,35.55
2018-02-22T11:27:46.484Z,37.35
2018-02-22T11:30:14.010Z,42.00
2018-02-22T11:32:41.662Z,37.75
2018-02-22T11:35:09.369Z,35.80
2018-02-22T11:37:37.541Z,39.92
2018-02-22T11:40:05.062Z,44.20
2018-02-22T11:42:32.710Z,31.80
2018-02-22T11:45:00.261Z,38.85
2018-02-22T11:47:27.778Z,30.42
2018-02-22T11:49:55.734Z,38.17
2018-02-22T11:52:23.305Z,38.58
2018-02-22T11:54:50.826Z,43.05
2018-02-22T11:57:18.375Z,42.90
2018-02-22T11:59:45.895Z,34.45
2018-02-22T12:02:13.469Z,40.05
2018-02-22T12:04:40.990Z,41.42
2018-02-22T12:07:08.510Z,39.20
2018-02-22T12:09:36.063Z,44.42
2018-02-22T12:12:03.574Z,32.72
2018-02-22T12:14:31.128Z,37.65
2018-02-22T12:16:58.652Z,35.35
2018-02-22T12:19:26.252Z,27.33
2018-02-22T12:21:53.895Z,37.30
2018-02-22T12:24:22.486Z,40.80
2018-02-22T12:26:50.030Z,37.13
2018-02-22T12:29:17.627Z,29.05
2018-02-22T12:31:45.145Z,29.60
2018-02-22T12:34:13.558Z,38.13
2018-02-22T12:36:41.073Z,35.47
2018-02-22T12:39:08.784Z,38.20
2018-02-22T12:41:36.429Z,40.80
2018-02-22T12:44:04.201Z,31.95
2018-02-22T12:46:31.754Z,35.63
2018-02-22T12:48:59.400Z,34.55
2018-02-22T12:51:27.173Z,39.78
2018-02-22T12:53:54.716Z,35.33
2018-02-22T12:56:22.296Z,39.05
2018-02-22T12:58:49.966Z,39.25
2018-02-22T13:01:17.549Z,33.85
2018-02-22T13:03:45.393Z,26.75
2018-02-22T13:06:13.156Z,36.90
2018-02-22T13:08:40.733Z,25.40
2018-02-22T13:11:08.377Z,36.60
2018-02-22T13:13:35.909Z,27.08
2018-02-22T13:16:03.445Z,28.90
2018-02-22T13:18:30.979Z,23.12
2018-02-22T13:20:58.582Z,25.45
2018-02-22T13:23:26.146Z,26.95
2018-02-22T13:25:53.661Z,32.25
2018-02-22T13:28:21.254Z,31.87
2018-02-22T13:30:48.926Z,26.00
2018-02-22T13:33:28.400Z,18.98
2018-02-22T13:35:56.277Z,30.45
2018-02-22T13:38:35.671Z,23.92
2018-02-22T13:41:03.268Z,34.08
2018-02-22T13:43:30.805Z,21.60
2018-02-22T13:45:58.342Z,24.73
2018-02-22T13:51:28.206Z,21.25
2018-02-22T13:53:55.758Z,15.52
2018-02-22T13:56:35.306Z,26.23
2018-02-22T13:59:02.905Z,16.25
2018-02-22T14:04:38.376Z,28.17
2018-02-22T14:07:06.195Z,33.08
2018-02-22T14:09:34.063Z,25.67
2018-02-22T14:12:01.934Z,24.35
2018-02-22T14:14:29.603Z,21.60
2018-02-22T14:16:57.456Z,20.10
2018-02-22T14:19:25.181Z,25.00
2018-02-22T14:21:52.883Z,19.60
2018-02-22T14:24:20.633Z,27.05
2018-02-22T14:26:48.241Z,24.25
2018-02-22T14:29:15.755Z,23.62
2018-02-22T14:31:43.353Z,22.85
2018-02-22T14:34:11.909Z,23.87
2018-02-22T14:36:39.661Z,22.08
2018-02-22T14:39:07.210Z,20.10
2018-02-22T14:41:34.742Z,22.27
2018-02-22T14:44:02.397Z,23.23
2018-02-22T14:46:30.106Z,23.45
2018-02-22T14:48:58.073Z,31.00
2018-02-22T14:51:25.848Z,19.48
2018-02-22T14:53:53.816Z,29.35
2018-02-22T14:56:21.488Z,22.98
2018-02-22T14:58:49.136Z,30.85
2018-02-22T15:01:17.006Z,25.02
2018-02-22T15:03:44.755Z,22.35
2018-02-22T15:06:12.831Z,23.27
2018-02-22T15:08:40.714Z,21.85
2018-02-22T15:11:08.585Z,27.25
2018-02-22T15:13:36.544Z,28.17
2018-02-22T15:16:04.412Z,24.60
2018-02-22T15:18:32.280Z,18.33
2018-02-22T15:21:00.042Z,29.92
2018-02-22T15:23:27.911Z,20.25
2018-02-22T15:25:55.876Z,19.20
2018-02-22T15:28:23.885Z,20.92
2018-02-22T15:30:52.327Z,27.30
2018-02-22T15:33:20.092Z,24.80
2018-02-22T15:35:47.958Z,24.12
2018-02-22T15:38:15.928Z,25.45
2018-02-22T15:40:43.894Z,25.17
2018-02-22T15:43:12.274Z,18.15
2018-02-22T15:45:40.195Z,28.20
2018-02-22T15:48:08.008Z,25.73
2018-02-22T15:50:36.046Z,27.15
2018-02-22T15:53:03.901Z,25.37
2018-02-22T15:55:32.017Z,20.12
2018-02-22T15:57:59.881Z,24.65
2018-02-22T16:00:27.748Z,25.25
2018-02-22T16:02:55.406Z,22.75
2018-02-22T16:05:23.057Z,31.92
2018-02-22T16:07:50.738Z,30.48
2018-02-22T16:10:18.599Z,15.13
2018-02-22T16:12:46.978Z,29.23
2018-02-22T16:15:15.051Z,18.35
2018-02-22T16:17:42.816Z,21.48
2018-02-22T16:20:10.680Z,24.90
2018-02-22T16:22:38.547Z,21.37
2018-02-22T16:25:07.335Z,22.40
2018-02-22T16:27:35.321Z,27.62
2018-02-22T16:30:03.171Z,28.70
2018-02-22T16:32:31.948Z,26.90
2018-02-22T16:34:59.879Z,26.87
2018-02-22T16:37:27.570Z,30.67
2018-02-22T16:39:55.700Z,27.33
2018-02-22T16:42:24.243Z,30.20
2018-02-22T16:44:52.212Z,18.98
2018-02-22T16:47:25.495Z,25.35
2018-02-22T16:49:53.476Z,25.50
2018-02-22T16:52:21.445Z,23.10
2018-02-22T16:54:49.310Z,21.17
2018-02-22T16:57:17.386Z,27.33
2018-02-22T16:59:45.151Z,28.60
2018-02-22T17:02:13.319Z,37.88
2018-02-22T17:04:41.391Z,27.27
2018-02-22T17:07:09.777Z,25.92
2018-02-22T17:09:37.912Z,21.65
2018-02-22T17:12:06.094Z,28.00
2018-02-22T17:14:34.393Z,28.42
2018-02-22T17:17:03.082Z,26.15
2018-02-22T17:19:31.048Z,29.17
2018-02-22T17:21:59.016Z,19.10
2018-02-22T17:24:26.883Z,24.37
2018-02-22T17:27:00.403Z,27.40
2018-02-22T17:29:33.778Z,29.55
2018-02-22T17:32:07.173Z,25.23
2018-02-22T17:34:35.042Z,35.35
2018-02-22T17:37:12.944Z,20.10
2018-02-22T17:42:48.585Z,18.23
2018-02-22T17:45:16.583Z,26.87
2018-02-22T17:47:44.568Z,20.67
2018-02-22T17:50:12.522Z,33.85
2018-02-22T17:52:40.488Z,63.33
2018-02-22T17:55:09.277Z,35.22
2018-02-22T17:57:37.247Z,13.57
2018-02-22T18:00:05.110Z,20.15
2018-02-22T18:02:34.195Z,28.80
2018-02-22T18:05:02.035Z,29.60
2018-02-22T18:07:30.058Z,46.22
2018-02-22T18:09:58.013Z,24.63
2018-02-22T18:12:26.288Z,29.83
2018-02-22T18:14:54.256Z,30.48
2018-02-22T18:17:22.153Z,29.37
2018-02-22T18:19:50.120Z,24.00
2018-02-22T18:22:18.168Z,26.77
2018-02-22T18:24:46.544Z,19.02
2018-02-22T18:27:14.738Z,22.80
2018-02-22T18:29:44.056Z,23.15
2018-02-22T18:32:13.114Z,25.83
2018-02-22T18:34:40.934Z,23.00
2018-02-22T18:37:14.646Z,22.15
2018-02-22T18:39:42.690Z,19.35
2018-02-22T18:42:16.268Z,20.15
2018-02-22T18:44:49.771Z,26.17
2018-02-22T18:47:18.641Z,23.38
2018-02-22T18:49:46.607Z,26.85
2018-02-22T18:52:14.474Z,18.65
2018-02-22T18:54:43.164Z,37.72
2018-02-22T18:57:11.904Z,25.05
2018-02-22T18:59:40.019Z,35.75
2018-02-22T19:02:07.890Z,20.55
2018-02-22T19:04:35.856Z,23.02
2018-02-22T19:07:03.847Z,25.12
2018-02-22T19:09:31.794Z,25.48
2018-02-22T19:12:00.817Z,28.45
2018-02-22T19:14:29.675Z,23.05
2018-02-22T19:16:57.645Z,29.83
2018-02-22T19:19:26.972Z,20.10
2018-02-22T19:21:55.296Z,19.40
2018-02-22T19:24:23.703Z,22.08
2018-02-22T19:26:51.570Z,28.98
2018-02-22T19:29:20.560Z,26.48
2018-02-22T19:31:49.133Z,25.83
2018-02-22T19:34:17.420Z,21.50
2018-02-22T19:36:45.568Z,35.22
2018-02-22T19:39:13.461Z,31.58
2018-02-22T19:41:41.942Z,23.33
2018-02-22T19:44:11.150Z,44.78
2018-02-22T19:46:39.086Z,29.80
2018-02-22T19:49:07.054Z,29.40
2018-02-22T19:51:35.764Z,29.80
2018-02-22T19:54:03.733Z,21.98
2018-02-22T19:56:31.704Z,21.85
2018-02-22T19:59:00.692Z,26.40
2018-02-22T20:01:29.091Z,23.23
2018-02-22T20:03:57.348Z,31.50
2018-02-22T20:06:25.247Z,28.33
2018-02-22T20:08:53.490Z,25.75
2018-02-22T20:11:21.357Z,21.25
2018-02-22T20:13:49.845Z,27.67
2018-02-22T20:16:17.826Z,26.92
2018-02-22T20:18:46.086Z,34.63
2018-02-22T20:21:14.462Z,24.50
2018-02-22T20:23:42.305Z,27.58
2018-02-22T20:26:10.595Z,16.02
2018-02-22T20:28:38.440Z,15.00
2018-02-22T20:31:06.337Z,22.85
2018-02-22T20:33:34.307Z,30.30
2018-02-22T20:36:02.483Z,22.70
2018-02-22T20:38:31.727Z,23.25
2018-02-22T20:40:59.648Z,19.20
2018-02-22T20:43:27.487Z,17.67
2018-02-22T20:45:55.485Z,26.33
2018-02-22T20:48:23.452Z,23.40
2018-02-22T20:50:51.420Z,18.37
2018-02-22T20:53:24.830Z,21.30
2018-02-22T20:55:53.044Z,22.90
2018-02-22T20:58:21.173Z,22.10
2018-02-22T21:00:49.332Z,35.17
2018-02-22T21:03:17.513Z,19.23
2018-02-22T21:05:45.461Z,28.10
2018-02-22T21:08:14.165Z,16.00
2018-02-22T21:10:42.032Z,23.42
2018-02-22T21:13:10.001Z,20.73
2018-02-22T21:15:37.970Z,18.83
2018-02-22T21:18:05.837Z,18.67
2018-02-22T21:20:33.935Z,19.33
2018-02-22T21:23:02.185Z,16.42
2018-02-22T21:25:30.115Z,19.30
2018-02-22T21:27:57.959Z,16.30
2018-02-22T21:30:25.888Z,22.00
2018-02-22T21:32:53.752Z,18.70
2018-02-22T21:35:21.621Z,18.08
2018-02-22T21:37:49.486Z,18.40
2018-02-22T21:40:17.661Z,23.70
2018-02-22T21:42:45.741Z,24.92
2018-02-22T21:45:13.703Z,19.73
2018-02-22T21:47:41.543Z,19.33
2018-02-22T21:50:09.434Z,22.08
2018-02-22T21:52:37.607Z,22.73
2018-02-22T21:55:05.372Z,21.05
2018-02-22T21:57:33.442Z,18.95
2018-02-22T22:00:01.207Z,21.08
2018-02-22T22:02:28.970Z,19.85
2018-02-22T22:04:56.939Z,14.68
2018-02-22T22:07:25.625Z,21.92
2018-02-22T22:09:54.007Z,13.85
2018-02-22T22:12:21.855Z,13.70
2018-02-22T22:14:49.512Z,21.37
2018-02-22T22:17:17.311Z,18.90
2018-02-22T22:19:45.162Z,16.12
2018-02-22T22:22:13.028Z,19.23
2018-02-22T22:24:40.895Z,12.00
2018-02-22T22:27:08.841Z,17.80
2018-02-22T22:29:37.140Z,22.42
2018-02-22T22:32:04.938Z,20.08
2018-02-22T22:34:33.180Z,16.70
2018-02-22T22:37:01.049Z,19.55
2018-02-22T22:39:29.630Z,15.27
2018-02-22T22:41:57.508Z,15.02
2018-02-22T22:44:26.285Z,12.50
2018-02-22T22:46:53.910Z,14.93
2018-02-22T22:49:21.849Z,17.40
2018-02-22T22:51:49.452Z,19.67
2018-02-22T22:54:17.182Z,14.10
2018-02-22T22:56:44.893Z,11.05
2018-02-22T22:59:12.511Z,15.52
2018-02-22T23:01:40.035Z,18.55
2018-02-22T23:04:07.559Z,23.75
2018-02-22T23:06:35.328Z,17.02
2018-02-22T23:09:02.853Z,21.65
2018-02-22T23:11:30.763Z,19.85
2018-02-22T23:13:58.806Z,20.70
2018-02-22T23:16:26.462Z,19.87
2018-02-22T23:18:54.368Z,19.65
2018-02-22T23:21:21.919Z,24.10
2018-02-22T23:23:49.699Z,19.62
2018-02-22T23:26:17.220Z,21.10
2018-02-22T23:28:44.809Z,22.17
2018-02-22T23:31:12.370Z,20.25
2018-02-22T23:33:39.885Z,15.63
2018-02-22T23:36:07.440Z,14.00
2018-02-22T23:38:35.010Z,16.55
2018-02-22T23:44:13.550Z,16.77
2018-02-22T23:46:41.267Z,13.23
2018-02-22T23:49:08.804Z,16.08
2018-02-22T23:51:36.365Z,14.90
2018-02-22T23:54:04.243Z,15.07
2018-02-22T23:56:31.777Z,13.95
2018-02-22T23:58:59.457Z,13.73
